createdAt,value
2019-06-20T00:00:06.135Z,20.94
2019-06-20T00:07:36.377Z,20.9
2019-06-20T00:13:57.189Z,20.73
2019-06-20T00:21:27.555Z,20.49
2019-06-20T00:27:31.466Z,20.52
2019-06-20T00:34:44.553Z,20.59
2019-06-20T00:41:05.595Z,20.55
2019-06-20T00:47:43.797Z,20.48
2019-06-20T00:54:22.144Z,20.38
2019-06-20T01:00:43.189Z,20.33
2019-06-20T01:07:21.658Z,20.23
2019-06-20T01:14:17.310Z,20.12
2019-06-20T01:20:38.392Z,20.01
2019-06-20T01:26:42.076Z,19.89
2019-06-20T01:33:55.070Z,19.78
2019-06-20T01:39:58.870Z,19.71
2019-06-20T01:46:19.953Z,19.65
2019-06-20T01:52:41.094Z,19.55
2019-06-20T01:59:02.146Z,19.48
2019-06-20T02:06:15.052Z,19.48
2019-06-20T02:13:10.779Z,19.49
2019-06-20T02:19:31.738Z,19.46
2019-06-20T02:26:10.283Z,19.35
2019-06-20T02:33:40.535Z,19.24
2019-06-20T02:41:10.690Z,19.15
2019-06-20T02:48:41.039Z,19.07
2019-06-20T02:55:02.229Z,19
2019-06-20T03:01:06.086Z,19.01
2019-06-20T03:07:27.223Z,19.14
2019-06-20T03:13:30.839Z,19.35
2019-06-20T03:19:52.611Z,19.52
2019-06-20T03:25:56.638Z,19.57
2019-06-20T03:32:17.969Z,19.65
2019-06-20T03:38:39.170Z,19.75
2019-06-20T03:45:20.132Z,19.81
2019-06-20T03:51:58.779Z,19.91
2019-06-20T03:58:37.270Z,19.97
2019-06-20T04:04:41.254Z,20.04
2019-06-20T04:11:19.555Z,20.17
2019-06-20T04:17:41.002Z,20.25
2019-06-20T04:23:45.226Z,20.41
2019-06-20T04:29:49.197Z,20.57
2019-06-20T04:35:53.410Z,20.82
2019-06-20T04:42:00.112Z,21.3
2019-06-20T04:48:04.267Z,21.92
2019-06-20T04:54:08.225Z,22.5
2019-06-20T05:00:12.417Z,22.98
2019-06-20T05:06:17.891Z,23.2
2019-06-20T05:12:39.194Z,23.79
2019-06-20T05:18:43.554Z,24.46
2019-06-20T05:24:50.728Z,25.58
2019-06-20T05:30:54.794Z,25.29
2019-06-20T05:37:16.374Z,25.25
2019-06-20T05:43:20.276Z,25.36
2019-06-20T05:49:24.454Z,25.49
2019-06-20T05:55:28.491Z,25.53
2019-06-20T06:01:32.432Z,25.27
2019-06-20T06:07:56.479Z,25.24
2019-06-20T06:14:00.721Z,25.76
2019-06-20T06:20:04.704Z,25.32
2019-06-20T06:26:08.713Z,24.99
2019-06-20T06:32:12.628Z,25.52
2019-06-20T06:38:26.670Z,29.7
2019-06-20T06:44:31.834Z,31.18
2019-06-20T06:50:53.478Z,29.74
2019-06-20T06:56:57.617Z,28.12
2019-06-20T07:03:01.627Z,27.81
2019-06-20T07:09:05.848Z,28.2
2019-06-20T07:15:27.318Z,27.87
2019-06-20T07:21:38.109Z,29.34
2019-06-20T07:27:42.006Z,29.69
2019-06-20T07:33:46.021Z,30.6
2019-06-20T07:39:50.130Z,31.29
2019-06-20T07:46:02.343Z,31.29
2019-06-20T07:52:07.120Z,36.58
2019-06-20T07:58:11.277Z,39.19
2019-06-20T08:04:15.449Z,44.4
2019-06-20T08:10:19.722Z,52.85
2019-06-20T08:16:23.897Z,57.12
2019-06-20T15:18:31.269Z,25.83
2019-06-20T15:24:35.207Z,26.2
2019-06-20T15:30:43.112Z,26.09
2019-06-20T15:37:08.860Z,26.08
2019-06-20T15:43:16.333Z,26.14
2019-06-20T15:49:51.374Z,25.95
2019-06-20T15:55:55.556Z,25.78
2019-06-20T16:02:16.663Z,25.85
2019-06-20T16:08:38.290Z,26.14
2019-06-20T16:14:42.103Z,26.6
2019-06-20T16:21:20.885Z,26.91
2019-06-20T16:27:25.013Z,26.63
2019-06-20T16:33:59.777Z,26.7
2019-06-20T16:40:03.749Z,26.76
2019-06-20T16:46:08.029Z,26.83
2019-06-20T16:52:12.193Z,26.88
2019-06-20T16:58:16.429Z,26.73
2019-06-20T17:04:20.339Z,26.82
2019-06-20T17:11:16.379Z,26.8
2019-06-20T17:17:23.205Z,26.31
2019-06-20T17:23:27.308Z,25.8
2019-06-20T17:29:31.136Z,25.44
2019-06-20T17:35:52.467Z,25.2
2019-06-20T17:42:13.546Z,25.18
2019-06-20T17:48:52.129Z,25.13
2019-06-20T17:55:47.870Z,25.1
2019-06-20T18:01:51.961Z,25.09
2019-06-20T18:08:33.560Z,24.94
2019-06-20T18:14:37.419Z,24.92
2019-06-20T18:21:02.642Z,25.09
2019-06-20T18:27:06.888Z,25.62
2019-06-20T18:33:10.830Z,26.21
2019-06-20T18:39:14.882Z,26.2
2019-06-20T18:45:19.432Z,25.83
2019-06-20T18:51:23.448Z,25.63
2019-06-20T18:57:27.329Z,25.28
2019-06-20T19:03:31.273Z,24.65
2019-06-20T19:09:35.257Z,24.03
2019-06-20T19:15:39.418Z,23.62
2019-06-20T19:21:43.586Z,23.24
2019-06-20T19:27:47.584Z,22.89
2019-06-20T19:33:52.168Z,22.67
2019-06-20T19:40:13.588Z,22.53
2019-06-20T19:46:17.498Z,22.12
2019-06-20T19:52:38.953Z,21.86
2019-06-20T19:58:42.862Z,21.67
2019-06-20T20:04:46.851Z,21.39
2019-06-20T20:11:08.284Z,21.15
2019-06-20T20:17:12.290Z,21.07
2019-06-20T20:23:33.211Z,21
2019-06-20T20:29:54.350Z,20.84
2019-06-20T20:36:23.900Z,20.67
2019-06-20T20:42:28.123Z,20.47
2019-06-20T20:49:23.781Z,20.33
2019-06-20T20:56:19.349Z,20.25
2019-06-20T21:02:57.785Z,20.21
2019-06-20T21:09:01.385Z,20.17
2019-06-20T21:15:05.216Z,20.17
2019-06-20T21:21:43.784Z,20.25
2019-06-20T21:28:22.143Z,20.3
2019-06-20T21:34:26.019Z,20.21
2019-06-20T21:40:29.575Z,20.12
2019-06-20T21:47:07.954Z,20.06
2019-06-20T21:53:11.772Z,20
2019-06-20T21:59:15.504Z,19.86
2019-06-20T22:05:19.216Z,19.69
2019-06-20T22:11:22.958Z,19.54
2019-06-20T22:17:26.583Z,19.4
2019-06-20T22:24:39.546Z,19.24
2019-06-20T22:31:00.569Z,19.09
2019-06-20T22:37:21.722Z,19.02
2019-06-20T22:44:34.744Z,19.05
2019-06-20T22:51:13.878Z,19.11
2019-06-20T22:57:35.172Z,19.07
2019-06-20T23:03:55.978Z,18.96
2019-06-20T23:10:10.180Z,18.74
2019-06-20T23:16:32.767Z,18.61
2019-06-20T23:22:54.008Z,18.49
2019-06-20T23:29:14.865Z,18.37
2019-06-20T23:35:53.144Z,18.28
2019-06-20T23:43:05.989Z,18.25
2019-06-20T23:50:01.637Z,18.22
2019-06-20T23:56:07.897Z,18.07
